Mary Dupre — WDH2629 — position and weather

sailwx.info

Track history (hours):
 
Tides and Currents Weather Stations Pressure Air Temp Water Temp Dewpoint Dewpoint Depression Visibility Wind Speed Wind Dir Waves Ship Positions

Mary Dupre

Owner: PAC Marine, LLC, Houma, LA. More information available from US FCC via Universal Licensing System and Coast Guard Vessel Documentation Center.

Last reported at 2018-Apr-24 12:48 UTC. Time now 2018-Apr-24 14:33 UTC.
Position N 29°24' W 094°45'.

Length 35 m; draft 2.9 m.

Type: . MMSI: 367599550.

Date/timePositionNaut miles runAvg speedWind from/ knotsBaromVisibWave heightAir tempDewpointWater temp
2018-Apr-24 12:48N 29°24' W 094°45'8 3.5
2018-Apr-24 10:29N 29°29' W 094°37'2 3.4
2018-Apr-24 10:00N 29°29' W 094°36'2 3.7
2018-Apr-24 09:30N 29°30' W 094°34'2 3.2
2018-Apr-24 09:00N 29°31' W 094°32'2 4.4
2018-Apr-24 08:30N 29°31' W 094°30'2 2.8
2018-Apr-24 07:57N 29°33' W 094°28'1 3.2
2018-Apr-24 07:30N 29°34' W 094°27'2 3.5
2018-Apr-24 06:57N 29°34' W 094°25'2 3.5
2018-Apr-24 06:30N 29°36' W 094°25'2 3.7
2018-Apr-24 06:00N 29°36' W 094°23'0 0.7
2018-Apr-24 05:29N 29°36' W 094°22'2 3.7
2018-Apr-24 05:01N 29°37' W 094°21'2 3.8
2018-Apr-24 04:30N 29°38' W 094°19'2 3.8
2018-Apr-24 04:00N 29°39' W 094°17'2 3.9
2018-Apr-24 03:30N 29°40' W 094°15'2 3.9
2018-Apr-24 03:01N 29°40' W 094°13'2 4.0
2018-Apr-24 02:30N 29°41' W 094°11'2 3.7
2018-Apr-24 02:01N 29°42' W 094°09'2 3.5
2018-Apr-24 01:30N 29°43' W 094°07'2 3.5
2018-Apr-24 01:00N 29°44' W 094°06'2 3.5
2018-Apr-24 00:30N 29°45' W 094°04'2 3.2
2018-Apr-24 00:00N 29°46' W 094°03'2 3.4
2018-Apr-23 23:30N 29°47' W 094°01'2 3.5
2018-Apr-23 23:00N 29°49' W 093°60'2 3.0
2018-Apr-23 22:29N 29°49' W 093°58'0 0.1
2018-Apr-23 21:59N 29°49' W 093°58'0 0.1
2018-Apr-23 21:29N 29°49' W 093°58'0 0.1
2018-Apr-23 20:59N 29°49' W 093°58'0 0.1
2018-Apr-23 20:30N 29°49' W 093°58'2 3.5
2018-Apr-23 20:00N 29°51' W 093°57'2 3.4
2018-Apr-23 19:30N 29°52' W 093°56'2 3.2
2018-Apr-23 19:01N 29°53' W 093°55'2 3.0
2018-Apr-23 18:30N 29°55' W 093°54'2 3.0
2018-Apr-23 18:00N 29°56' W 093°53'2 3.6
2018-Apr-23 17:31N 29°57' W 093°52'2 3.2
2018-Apr-23 17:00N 29°59' W 093°52'2 4.6
2018-Apr-23 16:30N 29°59' W 093°55'2 4.5
2018-Apr-23 16:00N 30°00' W 093°57'2 3.5
2018-Apr-23 15:30N 30°01' W 093°59'2 4.4
2018-Apr-23 15:00N 30°01' W 094°02'0 0.1
2018-Apr-23 14:30N 30°01' W 094°02'0 0.0
2018-Apr-23 14:00N 30°01' W 094°02'0 0.0
2018-Apr-23 13:30N 30°01' W 094°02'0 0.1
2018-Apr-23 13:00N 30°01' W 094°02'0 0.2
2018-Apr-23 12:29N 30°01' W 094°01'0 0.2
2018-Apr-23 11:59N 30°01' W 094°02'0 0.0
2018-Apr-23 11:29N 30°01' W 094°02'0 0.0
2018-Apr-23 10:59N 30°01' W 094°02'0 0.0
2018-Apr-23 10:29N 30°01' W 094°02'0 0.0
2018-Apr-23 09:59N 30°01' W 094°02'0 0.0
2018-Apr-23 09:29N 30°01' W 094°02'0 0.0
2018-Apr-23 08:56N 30°01' W 094°02'0 0.0
2018-Apr-23 08:29N 30°01' W 094°02'0 0.0
2018-Apr-23 07:59N 30°01' W 094°02'0 0.0
2018-Apr-23 07:29N 30°01' W 094°02'0 0.0
2018-Apr-23 06:56N 30°01' W 094°02'0 0.0
2018-Apr-23 06:29N 30°01' W 094°02'0 0.0
2018-Apr-23 05:59N 30°01' W 094°02'0 0.0
2018-Apr-23 05:28N 30°01' W 094°02'0 0.0
2018-Apr-23 04:58N 30°01' W 094°02'0 0.0
2018-Apr-23 04:28N 30°01' W 094°02'0 0.0
2018-Apr-23 03:58N 30°01' W 094°02'0 0.0
2018-Apr-23 03:28N 30°01' W 094°02'0 0.0
2018-Apr-23 02:58N 30°01' W 094°02'0 0.0
2018-Apr-23 02:28N 30°01' W 094°02'0 0.0
2018-Apr-23 01:58N 30°01' W 094°02'0 0.0
2018-Apr-23 01:28N 30°01' W 094°02'0 0.0
2018-Apr-23 00:58N 30°01' W 094°02'0 0.0
2018-Apr-23 00:28N 30°01' W 094°02'0 0.0
2018-Apr-22 23:58N 30°01' W 094°02'0 0.0
2018-Apr-22 23:28N 30°01' W 094°02'0 0.0
2018-Apr-22 22:58N 30°01' W 094°02'0 0.0
2018-Apr-22 22:28N 30°01' W 094°02'0 0.0
2018-Apr-22 21:58N 30°01' W 094°02'0 0.0
2018-Apr-22 21:28N 30°01' W 094°02'0 0.0
2018-Apr-22 20:58N 30°01' W 094°02'0 0.0
2018-Apr-22 20:28N 30°01' W 094°02'0 0.0
2018-Apr-22 19:58N 30°01' W 094°02'0 0.0
2018-Apr-22 19:28N 30°01' W 094°02'0 0.0
2018-Apr-22 18:58N 30°01' W 094°02'0 0.0
2018-Apr-22 18:28N 30°01' W 094°02'0 0.0
2018-Apr-22 17:58N 30°01' W 094°02'0 0.0
2018-Apr-22 17:28N 30°01' W 094°02'0 0.0
2018-Apr-22 16:58N 30°01' W 094°02'0 0.0
2018-Apr-22 16:28N 30°01' W 094°02'0 0.0
2018-Apr-22 15:58N 30°01' W 094°02'0 0.0
2018-Apr-22 15:28N 30°01' W 094°02'0 0.0
2018-Apr-22 14:58N 30°01' W 094°02'0 0.0
2018-Apr-22 14:28N 30°01' W 094°02'0 0.0
2018-Apr-22 13:58N 30°01' W 094°02'0 0.0
2018-Apr-22 13:28N 30°01' W 094°02'0 0.0
2018-Apr-22 12:58N 30°01' W 094°02'0 0.0
2018-Apr-22 12:28N 30°01' W 094°02'1 2.0
2018-Apr-22 12:00N 30°01' W 094°01'3 5.1
2018-Apr-22 11:30N 30°01' W 093°58'2 4.8
2018-Apr-22 11:00N 29°59' W 093°55'1 1.6
2018-Apr-22 10:29N 29°60' W 093°55'0 0.3
2018-Apr-22 09:59N 29°60' W 093°55'0 0.1
2018-Apr-22 09:29N 29°60' W 093°55'0 0.0
2018-Apr-22 08:59N 29°60' W 093°55'0 0.0
2018-Apr-22 08:28N 29°60' W 093°55'0 0.0
2018-Apr-22 07:58N 29°60' W 093°55'2 4.3
2018-Apr-22 07:31N 29°60' W 093°57'2 4.9
2018-Apr-22 07:00N 30°01' W 093°60'2 3.6
2018-Apr-22 06:30N 30°01' W 094°02'0 0.0
2018-Apr-22 06:00N 30°01' W 094°02'0 0.0
2018-Apr-22 05:29N 30°01' W 094°02'0 0.0
2018-Apr-22 04:59N 30°01' W 094°02'0 0.0
2018-Apr-22 04:29N 30°01' W 094°02'0 0.0
2018-Apr-22 03:59N 30°01' W 094°02'0 0.0
2018-Apr-22 03:29N 30°01' W 094°02'0 0.0
2018-Apr-22 02:59N 30°01' W 094°02'0 0.0
2018-Apr-22 02:29N 30°01' W 094°02'0 0.0
2018-Apr-22 01:59N 30°01' W 094°02'0 0.0
2018-Apr-22 01:29N 30°01' W 094°02'0 0.0
2018-Apr-22 00:59N 30°01' W 094°02'0 0.0
2018-Apr-22 00:29N 30°01' W 094°02'0 0.0
2018-Apr-21 23:59N 30°01' W 094°02'0 0.0
2018-Apr-21 23:29N 30°01' W 094°02'0 0.0
2018-Apr-21 22:59N 30°01' W 094°02'0 0.0
2018-Apr-21 22:29N 30°01' W 094°02'0 0.0
2018-Apr-21 21:59N 30°01' W 094°02'0 0.0
2018-Apr-21 21:29N 30°01' W 094°02'0 0.0
2018-Apr-21 20:59N 30°01' W 094°02'0 0.0
2018-Apr-21 20:29N 30°01' W 094°02'0 0.0
2018-Apr-21 19:59N 30°01' W 094°02'0 0.0
2018-Apr-21 19:29N 30°01' W 094°02'0 0.0
2018-Apr-21 18:56N 30°01' W 094°02'0 0.0
2018-Apr-21 18:29N 30°01' W 094°02'0 0.0
2018-Apr-21 17:59N 30°01' W 094°02'0 0.0
2018-Apr-21 17:29N 30°01' W 094°02'0 0.0
2018-Apr-21 16:59N 30°01' W 094°02'0 0.0
2018-Apr-21 16:29N 30°01' W 094°02'0 0.0
2018-Apr-21 15:59N 30°01' W 094°02'0 0.0
2018-Apr-21 15:29N 30°01' W 094°02'0 0.0
2018-Apr-21 14:59N 30°01' W 094°02'0 0.0
2018-Apr-21 14:29N 30°01' W 094°02'1 3.0
2018-Apr-21 14:00N 30°01' W 093°60'2 4.6
2018-Apr-21 13:30N 30°00' W 093°57'2 4.6
2018-Apr-21 13:00N 29°59' W 093°55'1 1.0
2018-Apr-21 12:30N 29°60' W 093°55'0 0.1
2018-Apr-21 11:59N 29°60' W 093°55'0 0.0
2018-Apr-21 11:29N 29°60' W 093°55'0 0.0
2018-Apr-21 10:59N 29°60' W 093°55'0 0.0
2018-Apr-21 10:29N 29°60' W 093°55'0 0.0
2018-Apr-21 09:59N 29°60' W 093°55'0 0.0
2018-Apr-21 09:29N 29°60' W 093°55'0 0.3
2018-Apr-21 08:51N 29°59' W 093°54'1 4.1
2018-Apr-21 08:30N 29°59' W 093°53'1 2.7
2018-Apr-21 08:00N 29°58' W 093°51'2 4.4
2018-Apr-21 07:30N 29°56' W 093°52'2 3.8
2018-Apr-21 07:00N 29°55' W 093°53'2 4.1
2018-Apr-21 06:31N 29°53' W 093°55'2 4.3
2018-Apr-21 06:00N 29°51' W 093°56'2 4.0
2018-Apr-21 05:30N 29°50' W 093°57'2 4.7
2018-Apr-21 05:00N 29°49' W 093°60'2 4.6
2018-Apr-21 04:31N 29°47' W 094°02'2 4.4
2018-Apr-21 04:00N 29°46' W 094°03'2 4.3
2018-Apr-21 03:30N 29°44' W 094°05'2 3.8
2018-Apr-21 03:00N 29°43' W 094°07'2 4.4
2018-Apr-21 02:30N 29°42' W 094°09'2 4.2
2018-Apr-21 02:00N 29°41' W 094°11'2 4.3
2018-Apr-21 01:31N 29°40' W 094°14'2 4.3
2018-Apr-21 01:00N 29°39' W 094°16'2 4.2
2018-Apr-21 00:30N 29°38' W 094°18'2 4.1
2018-Apr-21 00:00N 29°37' W 094°20'2 4.2
2018-Apr-20 23:30N 29°36' W 094°22'4 4.0
2018-Apr-20 22:23N 29°34' W 094°27'19 4.7
2018-Apr-20 18:19N 29°24' W 094°45'2 6.0
2018-Apr-20 18:00N 29°23' W 094°47'2 2.8
2018-Apr-20 17:18N 29°24' W 094°49'1 4.1
2018-Apr-20 17:00N 29°25' W 094°49'2 3.7
2018-Apr-20 16:29N 29°26' W 094°50'2 4.4
2018-Apr-20 16:00N 29°28' W 094°51'2 4.0
2018-Apr-20 15:30N 29°30' W 094°52'2 4.3
2018-Apr-20 15:00N 29°32' W 094°54'2 4.1
2018-Apr-20 14:30N 29°34' W 094°55'3 5.1
2018-Apr-20 14:00N 29°36' W 094°57'2 4.8
2018-Apr-20 13:30N 29°38' W 094°58'3 5.1
2018-Apr-20 13:00N 29°40' W 094°59'3 5.0
2018-Apr-20 12:31N 29°42' W 095°01'2 4.4
2018-Apr-20 12:00N 29°44' W 095°02'2 4.9
2018-Apr-20 11:30N 29°45' W 095°04'1 2.6
2018-Apr-20 10:58N 29°47' W 095°04'0 0.1
2018-Apr-20 08:56N 29°47' W 095°04'2 0.2
2018-Apr-20 00:37N 29°45' W 095°06'0 0.4
2018-Apr-20 00:22N 29°45' W 095°06'1 0.3
2018-Apr-19 22:42N 29°46' W 095°05'0 0.0
2018-Apr-19 22:27N 29°46' W 095°05'0 0.7
2018-Apr-19 21:59N 29°46' W 095°06'2 3.2
2018-Apr-19 21:20N 29°47' W 095°04'0 0.0
2018-Apr-19 20:56N 29°47' W 095°04'0 0.0
2018-Apr-19 20:27N 29°47' W 095°04'1 2.3
2018-Apr-19 19:57N 29°46' W 095°05'1 1.5
2018-Apr-19 19:11N 29°46' W 095°06'1 4.0
2018-Apr-19 19:00N 29°46' W 095°05'1 0.7
2018-Apr-19 17:56N 29°46' W 095°04'2 3.8
2018-Apr-19 17:29N 29°46' W 095°06'0 0.2
2018-Apr-19 16:43N 29°46' W 095°06'0 1.5
2018-Apr-19 16:24N 29°45' W 095°06'0 0.7
2018-Apr-19 16:00N 29°46' W 095°06'1 1.1
2018-Apr-19 15:28N 29°46' W 095°06'0 0.0
2018-Apr-19 14:52N 29°46' W 095°06'0 0.0
2018-Apr-19 14:28N 29°46' W 095°06'0 0.0
2018-Apr-19 13:58N 29°46' W 095°06'0 0.0
2018-Apr-19 13:16N 29°46' W 095°06'0 0.9
2018-Apr-19 12:59N 29°46' W 095°06'2 0.4
2018-Apr-19 09:12N 29°47' W 095°04'1 4.0
2018-Apr-19 08:56N 29°46' W 095°05'2 0.6
2018-Apr-19 06:03N 29°45' W 095°06'0 0.1
2018-Apr-19 05:48N 29°45' W 095°06'1 2.4
2018-Apr-19 05:29N 29°45' W 095°06'2 4.2
2018-Apr-19 05:00N 29°47' W 095°04'1 0.1
2018-Apr-19 01:00N 29°46' W 095°05'1 1.3
2018-Apr-19 00:19N 29°47' W 095°04'0 0.3
2018-Apr-18 23:28N 29°47' W 095°04'0 0.5
2018-Apr-18 23:00N 29°47' W 095°04'0 0.6
2018-Apr-18 22:27N 29°47' W 095°04'2 3.9
2018-Apr-18 21:55N 29°46' W 095°06'0 0.0
2018-Apr-18 21:19N 29°46' W 095°06'0 0.1
2018-Apr-18 20:59N 29°46' W 095°06'2 3.5
2018-Apr-18 20:30N 29°47' W 095°04'0 0.4
2018-Apr-18 19:58N 29°47' W 095°04'0 0.3
2018-Apr-18 19:29N 29°47' W 095°04'2 4.9
2018-Apr-18 19:00N 29°46' W 095°06'0 0.1
2018-Apr-18 16:51N 29°46' W 095°07'0 0.0
2018-Apr-18 15:06N 29°46' W 095°07'0 0.0
2018-Apr-18 14:54N 29°46' W 095°07'0 0.0
2018-Apr-18 14:30N 29°46' W 095°07'0 0.0
2018-Apr-18 14:00N 29°46' W 095°07'0 0.0
2018-Apr-18 13:30N 29°46' W 095°07'0 0.4
2018-Apr-18 12:52N 29°46' W 095°06'1 2.9
2018-Apr-18 12:30N 29°45' W 095°06'3 5.5
2018-Apr-18 11:58N 29°45' W 095°10'3 5.5
2018-Apr-18 11:22N 29°44' W 095°13'0 0.3
2018-Apr-18 10:48N 29°44' W 095°13'0 1.5
2018-Apr-18 10:29N 29°43' W 095°13'2 4.8
2018-Apr-18 09:59N 29°45' W 095°11'3 5.6
2018-Apr-18 09:28N 29°44' W 095°07'3 5.6
2018-Apr-18 09:00N 29°46' W 095°05'1 1.7
2018-Apr-18 08:12N 29°47' W 095°04'0 0.0
2018-Apr-18 08:00N 29°47' W 095°04'3 2.5
2018-Apr-18 06:51N 29°45' W 095°06'0 0.6
2018-Apr-18 06:30N 29°45' W 095°06'1 0.9
2018-Apr-18 05:10N 29°46' W 095°05'1 5.1
2018-Apr-18 05:00N 29°46' W 095°05'1 1.3
2018-Apr-18 04:28N 29°47' W 095°04'0 0.0
2018-Apr-18 03:49N 29°47' W 095°04'0 0.0
2018-Apr-18 03:25N 29°47' W 095°04'2 4.5
2018-Apr-18 03:00N 29°45' W 095°05'3 5.7
2018-Apr-18 02:30N 29°44' W 095°08'3 5.6
2018-Apr-18 02:00N 29°45' W 095°12'2 1.2
2018-Apr-18 00:13N 29°44' W 095°14'2 5.3
2018-Apr-17 23:47N 29°45' W 095°11'1 4.5
2018-Apr-17 23:29N 29°45' W 095°10'3 5.4
2018-Apr-17 22:59N 29°44' W 095°07'2 4.7
2018-Apr-17 22:30N 29°46' W 095°05'1 1.6
2018-Apr-17 21:58N 29°47' W 095°05'0 0.2
2018-Apr-17 21:30N 29°47' W 095°04'0 0.0
2018-Apr-17 21:00N 29°47' W 095°04'0 0.0
2018-Apr-17 20:27N 29°47' W 095°04'0 0.0
2018-Apr-17 20:00N 29°47' W 095°04'0 0.0
2018-Apr-17 19:30N 29°47' W 095°04'0 0.0
2018-Apr-17 19:00N 29°47' W 095°04'0 0.0
2018-Apr-17 18:30N 29°47' W 095°04'0 0.0
2018-Apr-17 18:00N 29°47' W 095°04'0 0.0
2018-Apr-17 17:30N 29°47' W 095°04'0 0.0
2018-Apr-17 17:00N 29°47' W 095°04'0 0.0
2018-Apr-17 16:30N 29°47' W 095°04'0 0.6
2018-Apr-17 16:00N 29°47' W 095°04'0 0.5
2018-Apr-17 15:29N 29°47' W 095°04'0 0.0
2018-Apr-17 14:56N 29°47' W 095°04'0 0.2
2018-Apr-17 14:29N 29°47' W 095°04'0 0.2
2018-Apr-17 14:01N 29°47' W 095°04'0 0.0
2018-Apr-17 13:30N 29°47' W 095°04'0 0.0
2018-Apr-17 13:00N 29°47' W 095°04'0 0.0
2018-Apr-17 12:30N 29°47' W 095°04'0 0.0
2018-Apr-17 11:54N 29°47' W 095°04'0 0.0
2018-Apr-17 11:15N 29°47' W 095°04'0 0.0
2018-Apr-17 10:57N 29°47' W 095°04'0 0.0
2018-Apr-17 10:24N 29°47' W 095°04'0 0.0
2018-Apr-17 09:57N 29°47' W 095°04'0 0.0
2018-Apr-17 09:30N 29°47' W 095°04'0 0.0
2018-Apr-17 09:00N 29°47' W 095°04'0 0.0
2018-Apr-17 08:30N 29°47' W 095°04'0 0.0
2018-Apr-17 08:00N 29°47' W 095°04'0 0.0
2018-Apr-17 07:15N 29°47' W 095°04'0 0.0
2018-Apr-17 06:57N 29°47' W 095°04'0 0.0
2018-Apr-17 06:30N 29°47' W 095°04'0 0.0
2018-Apr-17 06:00N 29°47' W 095°04'0 0.0
2018-Apr-17 05:27N 29°47' W 095°04'0 0.0
2018-Apr-17 04:57N 29°47' W 095°04'0 0.0
2018-Apr-17 04:30N 29°47' W 095°04'0 0.0
2018-Apr-17 04:00N 29°47' W 095°04'0 0.0
2018-Apr-17 03:03N 29°47' W 095°04'0 0.0
2018-Apr-17 02:54N 29°47' W 095°04'0 0.0
2018-Apr-17 02:30N 29°47' W 095°04'0 0.0
2018-Apr-17 01:51N 29°47' W 095°04'0 0.0
2018-Apr-17 01:00N 29°47' W 095°04'0 0.0
2018-Apr-17 00:30N 29°47' W 095°04'0 0.0
2018-Apr-17 00:00N 29°47' W 095°04'0 0.8
2018-Apr-16 23:30N 29°47' W 095°05'0 0.6
2018-Apr-16 22:59N 29°47' W 095°04'0 0.1
2018-Apr-16 22:30N 29°47' W 095°04'0 0.1
2018-Apr-16 21:09N 29°47' W 095°04'0 0.1
2018-Apr-16 21:00N 29°47' W 095°04'0 0.2
2018-Apr-16 20:29N 29°47' W 095°04'0 0.1
2018-Apr-16 19:56N 29°47' W 095°04'0 0.0
2018-Apr-16 19:14N 29°47' W 095°04'0 0.0
2018-Apr-16 18:59N 29°47' W 095°04'0 0.0
2018-Apr-16 18:23N 29°47' W 095°04'0 0.1
2018-Apr-16 17:59N 29°47' W 095°04'1 1.3
2018-Apr-16 17:31N 29°46' W 095°05'1 0.5
2018-Apr-16 15:29N 29°46' W 095°06'1 0.4
2018-Apr-16 13:03N 29°45' W 095°06'0 5.5
2018-Apr-16 12:59N 29°45' W 095°06'1 0.5
2018-Apr-16 10:52N 29°46' W 095°06'1 2.6
2018-Apr-16 10:29N 29°46' W 095°05'1 2.9
2018-Apr-16 10:00N 29°47' W 095°04'0 0.0
2018-Apr-16 09:30N 29°47' W 095°04'1 0.9
2018-Apr-16 08:56N 29°46' W 095°05'2 4.5
2018-Apr-16 08:29N 29°45' W 095°04'2 5.0
2018-Apr-16 08:00N 29°43' W 095°01'1 2.3
2018-Apr-16 07:30N 29°42' W 095°02'1 2.4
2018-Apr-16 06:59N 29°43' W 095°03'0 0.3
2018-Apr-16 06:29N 29°43' W 095°03'0 0.0
2018-Apr-16 05:50N 29°43' W 095°03'0 0.0
2018-Apr-16 05:17N 29°43' W 095°03'0 0.0
2018-Apr-16 04:59N 29°43' W 095°03'0 0.0
2018-Apr-16 04:26N 29°43' W 095°03'0 0.0
2018-Apr-16 03:59N 29°43' W 095°03'0 0.0
2018-Apr-16 03:14N 29°43' W 095°03'0 0.0
2018-Apr-16 02:59N 29°43' W 095°03'0 0.0
2018-Apr-16 02:29N 29°43' W 095°03'0 0.0
2018-Apr-16 01:59N 29°43' W 095°03'0 0.0
2018-Apr-16 01:29N 29°43' W 095°03'0 0.0
2018-Apr-16 00:56N 29°43' W 095°03'0 0.0
2018-Apr-16 00:29N 29°43' W 095°03'0 0.0
2018-Apr-15 23:59N 29°43' W 095°03'0 0.0
2018-Apr-15 23:29N 29°43' W 095°03'0 0.0
2018-Apr-15 22:59N 29°43' W 095°03'0 0.0
2018-Apr-15 22:30N 29°43' W 095°03'0 0.0
2018-Apr-15 21:54N 29°43' W 095°03'0 0.0
2018-Apr-15 21:30N 29°43' W 095°03'0 0.0
2018-Apr-15 21:00N 29°43' W 095°03'0 0.0
2018-Apr-15 20:30N 29°43' W 095°03'0 0.0
2018-Apr-15 20:00N 29°43' W 095°03'0 0.0
2018-Apr-15 19:30N 29°43' W 095°03'0 0.0
2018-Apr-15 19:00N 29°43' W 095°03'0 0.0
2018-Apr-15 18:30N 29°43' W 095°03'0 0.0
2018-Apr-15 17:57N 29°43' W 095°03'0 0.0
2018-Apr-15 17:30N 29°43' W 095°03'0 0.0
2018-Apr-15 17:00N 29°43' W 095°03'0 0.0
2018-Apr-15 16:30N 29°43' W 095°03'0 0.0
2018-Apr-15 16:00N 29°43' W 095°03'0 0.0
2018-Apr-15 15:30N 29°43' W 095°03'0 0.0
2018-Apr-15 15:00N 29°43' W 095°03'0 0.0
2018-Apr-15 14:30N 29°43' W 095°03'0 0.0
2018-Apr-15 14:00N 29°43' W 095°03'0 0.0
2018-Apr-15 13:30N 29°43' W 095°03'0 0.0
2018-Apr-15 13:00N 29°43' W 095°03'0 0.0
2018-Apr-15 12:30N 29°43' W 095°03'0 0.1
2018-Apr-15 11:50N 29°42' W 095°03'1 2.0
2018-Apr-15 11:30N 29°42' W 095°02'1 2.2
2018-Apr-15 11:00N 29°43' W 095°01'2 4.7
2018-Apr-15 10:30N 29°44' W 095°03'2 4.6
2018-Apr-15 10:00N 29°46' W 095°05'1 1.6
2018-Apr-15 09:27N 29°47' W 095°04'0 0.1
2018-Apr-15 08:19N 29°47' W 095°04'0 0.1
2018-Apr-15 04:22N 29°47' W 095°04'2 4.4
2018-Apr-15 04:00N 29°45' W 095°04'2 3.7
2018-Apr-15 03:30N 29°44' W 095°03'0 0.1
2018-Apr-15 03:00N 29°44' W 095°03'0 0.2
2018-Apr-15 02:28N 29°44' W 095°03'2 4.7
2018-Apr-15 01:59N 29°46' W 095°05'2 0.3
2018-Apr-14 21:17N 29°47' W 095°04'1 4.8
2018-Apr-14 21:00N 29°46' W 095°05'  
Track history (hours):
 
Tides and Currents Weather Stations Pressure Air Temp Water Temp Dewpoint Dewpoint Depression Visibility Wind Speed Wind Dir Waves Ship Positions

Mary Dupre

Owner: PAC Marine, LLC, Houma, LA. More information available from US FCC via Universal Licensing System and Coast Guard Vessel Documentation Center.

Last reported at 2018-Apr-24 12:48 UTC. Time now 2018-Apr-24 14:33 UTC.
Position N 29°24' W 094°45'.

Length 35 m; draft 2.9 m.

Type: . MMSI: 367599550.

Date/timePositionNaut miles runAvg speedWind from/ knotsBaromVisibWave heightAir tempDewpointWater temp
2018-Apr-24 12:48N 29°24' W 094°45'8 3.5
2018-Apr-24 10:29N 29°29' W 094°37'2 3.4
2018-Apr-24 10:00N 29°29' W 094°36'2 3.7
2018-Apr-24 09:30N 29°30' W 094°34'2 3.2
2018-Apr-24 09:00N 29°31' W 094°32'2 4.4
2018-Apr-24 08:30N 29°31' W 094°30'2 2.8
2018-Apr-24 07:57N 29°33' W 094°28'1 3.2
2018-Apr-24 07:30N 29°34' W 094°27'2 3.5
2018-Apr-24 06:57N 29°34' W 094°25'2 3.5
2018-Apr-24 06:30N 29°36' W 094°25'2 3.7
2018-Apr-24 06:00N 29°36' W 094°23'0 0.7
2018-Apr-24 05:29N 29°36' W 094°22'2 3.7
2018-Apr-24 05:01N 29°37' W 094°21'2 3.8
2018-Apr-24 04:30N 29°38' W 094°19'2 3.8
2018-Apr-24 04:00N 29°39' W 094°17'2 3.9
2018-Apr-24 03:30N 29°40' W 094°15'2 3.9
2018-Apr-24 03:01N 29°40' W 094°13'2 4.0
2018-Apr-24 02:30N 29°41' W 094°11'2 3.7
2018-Apr-24 02:01N 29°42' W 094°09'2 3.5
2018-Apr-24 01:30N 29°43' W 094°07'2 3.5
2018-Apr-24 01:00N 29°44' W 094°06'2 3.5
2018-Apr-24 00:30N 29°45' W 094°04'2 3.2
2018-Apr-24 00:00N 29°46' W 094°03'2 3.4
2018-Apr-23 23:30N 29°47' W 094°01'2 3.5
2018-Apr-23 23:00N 29°49' W 093°60'2 3.0
2018-Apr-23 22:29N 29°49' W 093°58'0 0.1
2018-Apr-23 21:59N 29°49' W 093°58'0 0.1
2018-Apr-23 21:29N 29°49' W 093°58'0 0.1
2018-Apr-23 20:59N 29°49' W 093°58'0 0.1
2018-Apr-23 20:30N 29°49' W 093°58'2 3.5
2018-Apr-23 20:00N 29°51' W 093°57'2 3.4
2018-Apr-23 19:30N 29°52' W 093°56'2 3.2
2018-Apr-23 19:01N 29°53' W 093°55'2 3.0
2018-Apr-23 18:30N 29°55' W 093°54'2 3.0
2018-Apr-23 18:00N 29°56' W 093°53'2 3.6
2018-Apr-23 17:31N 29°57' W 093°52'2 3.2
2018-Apr-23 17:00N 29°59' W 093°52'2 4.6
2018-Apr-23 16:30N 29°59' W 093°55'2 4.5
2018-Apr-23 16:00N 30°00' W 093°57'2 3.5
2018-Apr-23 15:30N 30°01' W 093°59'2 4.4
2018-Apr-23 15:00N 30°01' W 094°02'0 0.1
2018-Apr-23 14:30N 30°01' W 094°02'0 0.0
2018-Apr-23 14:00N 30°01' W 094°02'0 0.0
2018-Apr-23 13:30N 30°01' W 094°02'0 0.1
2018-Apr-23 13:00N 30°01' W 094°02'0 0.2
2018-Apr-23 12:29N 30°01' W 094°01'0 0.2
2018-Apr-23 11:59N 30°01' W 094°02'0 0.0
2018-Apr-23 11:29N 30°01' W 094°02'0 0.0
2018-Apr-23 10:59N 30°01' W 094°02'0 0.0
2018-Apr-23 10:29N 30°01' W 094°02'0 0.0
2018-Apr-23 09:59N 30°01' W 094°02'0 0.0
2018-Apr-23 09:29N 30°01' W 094°02'0 0.0
2018-Apr-23 08:56N 30°01' W 094°02'0 0.0
2018-Apr-23 08:29N 30°01' W 094°02'0 0.0
2018-Apr-23 07:59N 30°01' W 094°02'0 0.0
2018-Apr-23 07:29N 30°01' W 094°02'0 0.0
2018-Apr-23 06:56N 30°01' W 094°02'0 0.0
2018-Apr-23 06:29N 30°01' W 094°02'0 0.0
2018-Apr-23 05:59N 30°01' W 094°02'0 0.0
2018-Apr-23 05:28N 30°01' W 094°02'0 0.0
2018-Apr-23 04:58N 30°01' W 094°02'0 0.0
2018-Apr-23 04:28N 30°01' W 094°02'0 0.0
2018-Apr-23 03:58N 30°01' W 094°02'0 0.0
2018-Apr-23 03:28N 30°01' W 094°02'0 0.0
2018-Apr-23 02:58N 30°01' W 094°02'0 0.0
2018-Apr-23 02:28N 30°01' W 094°02'0 0.0
2018-Apr-23 01:58N 30°01' W 094°02'0 0.0
2018-Apr-23 01:28N 30°01' W 094°02'0 0.0
2018-Apr-23 00:58N 30°01' W 094°02'0 0.0
2018-Apr-23 00:28N 30°01' W 094°02'0 0.0
2018-Apr-22 23:58N 30°01' W 094°02'0 0.0
2018-Apr-22 23:28N 30°01' W 094°02'0 0.0
2018-Apr-22 22:58N 30°01' W 094°02'0 0.0
2018-Apr-22 22:28N 30°01' W 094°02'0 0.0
2018-Apr-22 21:58N 30°01' W 094°02'0 0.0
2018-Apr-22 21:28N 30°01' W 094°02'0 0.0
2018-Apr-22 20:58N 30°01' W 094°02'0 0.0
2018-Apr-22 20:28N 30°01' W 094°02'0 0.0
2018-Apr-22 19:58N 30°01' W 094°02'0 0.0
2018-Apr-22 19:28N 30°01' W 094°02'0 0.0
2018-Apr-22 18:58N 30°01' W 094°02'0 0.0
2018-Apr-22 18:28N 30°01' W 094°02'0 0.0
2018-Apr-22 17:58N 30°01' W 094°02'0 0.0
2018-Apr-22 17:28N 30°01' W 094°02'0 0.0
2018-Apr-22 16:58N 30°01' W 094°02'0 0.0
2018-Apr-22 16:28N 30°01' W 094°02'0 0.0
2018-Apr-22 15:58N 30°01' W 094°02'0 0.0
2018-Apr-22 15:28N 30°01' W 094°02'0 0.0
2018-Apr-22 14:58N 30°01' W 094°02'0 0.0
2018-Apr-22 14:28N 30°01' W 094°02'0 0.0
2018-Apr-22 13:58N 30°01' W 094°02'0 0.0
2018-Apr-22 13:28N 30°01' W 094°02'0 0.0
2018-Apr-22 12:58N 30°01' W 094°02'0 0.0
2018-Apr-22 12:28N 30°01' W 094°02'1 2.0
2018-Apr-22 12:00N 30°01' W 094°01'3 5.1
2018-Apr-22 11:30N 30°01' W 093°58'2 4.8
2018-Apr-22 11:00N 29°59' W 093°55'1 1.6
2018-Apr-22 10:29N 29°60' W 093°55'0 0.3
2018-Apr-22 09:59N 29°60' W 093°55'0 0.1
2018-Apr-22 09:29N 29°60' W 093°55'0 0.0
2018-Apr-22 08:59N 29°60' W 093°55'0 0.0
2018-Apr-22 08:28N 29°60' W 093°55'0 0.0
2018-Apr-22 07:58N 29°60' W 093°55'2 4.3
2018-Apr-22 07:31N 29°60' W 093°57'2 4.9
2018-Apr-22 07:00N 30°01' W 093°60'2 3.6
2018-Apr-22 06:30N 30°01' W 094°02'0 0.0
2018-Apr-22 06:00N 30°01' W 094°02'0 0.0
2018-Apr-22 05:29N 30°01' W 094°02'0 0.0
2018-Apr-22 04:59N 30°01' W 094°02'0 0.0
2018-Apr-22 04:29N 30°01' W 094°02'0 0.0
2018-Apr-22 03:59N 30°01' W 094°02'0 0.0
2018-Apr-22 03:29N 30°01' W 094°02'0 0.0
2018-Apr-22 02:59N 30°01' W 094°02'0 0.0
2018-Apr-22 02:29N 30°01' W 094°02'0 0.0
2018-Apr-22 01:59N 30°01' W 094°02'0 0.0
2018-Apr-22 01:29N 30°01' W 094°02'0 0.0
2018-Apr-22 00:59N 30°01' W 094°02'0 0.0
2018-Apr-22 00:29N 30°01' W 094°02'0 0.0
2018-Apr-21 23:59N 30°01' W 094°02'0 0.0
2018-Apr-21 23:29N 30°01' W 094°02'0 0.0
2018-Apr-21 22:59N 30°01' W 094°02'0 0.0
2018-Apr-21 22:29N 30°01' W 094°02'0 0.0
2018-Apr-21 21:59N 30°01' W 094°02'0 0.0
2018-Apr-21 21:29N 30°01' W 094°02'0 0.0
2018-Apr-21 20:59N 30°01' W 094°02'0 0.0
2018-Apr-21 20:29N 30°01' W 094°02'0 0.0
2018-Apr-21 19:59N 30°01' W 094°02'0 0.0
2018-Apr-21 19:29N 30°01' W 094°02'0 0.0
2018-Apr-21 18:56N 30°01' W 094°02'0 0.0
2018-Apr-21 18:29N 30°01' W 094°02'0 0.0
2018-Apr-21 17:59N 30°01' W 094°02'0 0.0
2018-Apr-21 17:29N 30°01' W 094°02'0 0.0
2018-Apr-21 16:59N 30°01' W 094°02'0 0.0
2018-Apr-21 16:29N 30°01' W 094°02'0 0.0
2018-Apr-21 15:59N 30°01' W 094°02'0 0.0
2018-Apr-21 15:29N 30°01' W 094°02'0 0.0
2018-Apr-21 14:59N 30°01' W 094°02'0 0.0
2018-Apr-21 14:29N 30°01' W 094°02'1 3.0
2018-Apr-21 14:00N 30°01' W 093°60'2 4.6
2018-Apr-21 13:30N 30°00' W 093°57'2 4.6
2018-Apr-21 13:00N 29°59' W 093°55'1 1.0
2018-Apr-21 12:30N 29°60' W 093°55'0 0.1
2018-Apr-21 11:59N 29°60' W 093°55'0 0.0
2018-Apr-21 11:29N 29°60' W 093°55'0 0.0
2018-Apr-21 10:59N 29°60' W 093°55'0 0.0
2018-Apr-21 10:29N 29°60' W 093°55'0 0.0
2018-Apr-21 09:59N 29°60' W 093°55'0 0.0
2018-Apr-21 09:29N 29°60' W 093°55'0 0.3
2018-Apr-21 08:51N 29°59' W 093°54'1 4.1
2018-Apr-21 08:30N 29°59' W 093°53'1 2.7
2018-Apr-21 08:00N 29°58' W 093°51'2 4.4
2018-Apr-21 07:30N 29°56' W 093°52'2 3.8
2018-Apr-21 07:00N 29°55' W 093°53'2 4.1
2018-Apr-21 06:31N 29°53' W 093°55'2 4.3
2018-Apr-21 06:00N 29°51' W 093°56'2 4.0
2018-Apr-21 05:30N 29°50' W 093°57'2 4.7
2018-Apr-21 05:00N 29°49' W 093°60'2 4.6
2018-Apr-21 04:31N 29°47' W 094°02'2 4.4
2018-Apr-21 04:00N 29°46' W 094°03'2 4.3
2018-Apr-21 03:30N 29°44' W 094°05'2 3.8
2018-Apr-21 03:00N 29°43' W 094°07'2 4.4
2018-Apr-21 02:30N 29°42' W 094°09'2 4.2
2018-Apr-21 02:00N 29°41' W 094°11'2 4.3
2018-Apr-21 01:31N 29°40' W 094°14'2 4.3
2018-Apr-21 01:00N 29°39' W 094°16'2 4.2
2018-Apr-21 00:30N 29°38' W 094°18'2 4.1
2018-Apr-21 00:00N 29°37' W 094°20'2 4.2
2018-Apr-20 23:30N 29°36' W 094°22'4 4.0
2018-Apr-20 22:23N 29°34' W 094°27'19 4.7
2018-Apr-20 18:19N 29°24' W 094°45'2 6.0
2018-Apr-20 18:00N 29°23' W 094°47'2 2.8
2018-Apr-20 17:18N 29°24' W 094°49'1 4.1
2018-Apr-20 17:00N 29°25' W 094°49'2 3.7
2018-Apr-20 16:29N 29°26' W 094°50'2 4.4
2018-Apr-20 16:00N 29°28' W 094°51'2 4.0
2018-Apr-20 15:30N 29°30' W 094°52'2 4.3
2018-Apr-20 15:00N 29°32' W 094°54'2 4.1
2018-Apr-20 14:30N 29°34' W 094°55'3 5.1
2018-Apr-20 14:00N 29°36' W 094°57'2 4.8
2018-Apr-20 13:30N 29°38' W 094°58'3 5.1
2018-Apr-20 13:00N 29°40' W 094°59'3 5.0
2018-Apr-20 12:31N 29°42' W 095°01'2 4.4
2018-Apr-20 12:00N 29°44' W 095°02'2 4.9
2018-Apr-20 11:30N 29°45' W 095°04'1 2.6
2018-Apr-20 10:58N 29°47' W 095°04'0 0.1
2018-Apr-20 08:56N 29°47' W 095°04'2 0.2
2018-Apr-20 00:37N 29°45' W 095°06'0 0.4
2018-Apr-20 00:22N 29°45' W 095°06'1 0.3
2018-Apr-19 22:42N 29°46' W 095°05'0 0.0
2018-Apr-19 22:27N 29°46' W 095°05'0 0.7
2018-Apr-19 21:59N 29°46' W 095°06'2 3.2
2018-Apr-19 21:20N 29°47' W 095°04'0 0.0
2018-Apr-19 20:56N 29°47' W 095°04'0 0.0
2018-Apr-19 20:27N 29°47' W 095°04'1 2.3
2018-Apr-19 19:57N 29°46' W 095°05'1 1.5
2018-Apr-19 19:11N 29°46' W 095°06'1 4.0
2018-Apr-19 19:00N 29°46' W 095°05'1 0.7
2018-Apr-19 17:56N 29°46' W 095°04'2 3.8
2018-Apr-19 17:29N 29°46' W 095°06'0 0.2
2018-Apr-19 16:43N 29°46' W 095°06'0 1.5
2018-Apr-19 16:24N 29°45' W 095°06'0 0.7
2018-Apr-19 16:00N 29°46' W 095°06'1 1.1
2018-Apr-19 15:28N 29°46' W 095°06'0 0.0
2018-Apr-19 14:52N 29°46' W 095°06'0 0.0
2018-Apr-19 14:28N 29°46' W 095°06'0 0.0
2018-Apr-19 13:58N 29°46' W 095°06'0 0.0
2018-Apr-19 13:16N 29°46' W 095°06'0 0.9
2018-Apr-19 12:59N 29°46' W 095°06'2 0.4
2018-Apr-19 09:12N 29°47' W 095°04'1 4.0
2018-Apr-19 08:56N 29°46' W 095°05'2 0.6
2018-Apr-19 06:03N 29°45' W 095°06'0 0.1
2018-Apr-19 05:48N 29°45' W 095°06'1 2.4
2018-Apr-19 05:29N 29°45' W 095°06'2 4.2
2018-Apr-19 05:00N 29°47' W 095°04'1 0.1
2018-Apr-19 01:00N 29°46' W 095°05'1 1.3
2018-Apr-19 00:19N 29°47' W 095°04'0 0.3
2018-Apr-18 23:28N 29°47' W 095°04'0 0.5
2018-Apr-18 23:00N 29°47' W 095°04'0 0.6
2018-Apr-18 22:27N 29°47' W 095°04'2 3.9
2018-Apr-18 21:55N 29°46' W 095°06'0 0.0
2018-Apr-18 21:19N 29°46' W 095°06'0 0.1
2018-Apr-18 20:59N 29°46' W 095°06'2 3.5
2018-Apr-18 20:30N 29°47' W 095°04'0 0.4
2018-Apr-18 19:58N 29°47' W 095°04'0 0.3
2018-Apr-18 19:29N 29°47' W 095°04'2 4.9
2018-Apr-18 19:00N 29°46' W 095°06'0 0.1
2018-Apr-18 16:51N 29°46' W 095°07'0 0.0
2018-Apr-18 15:06N 29°46' W 095°07'0 0.0
2018-Apr-18 14:54N 29°46' W 095°07'0 0.0
2018-Apr-18 14:30N 29°46' W 095°07'0 0.0
2018-Apr-18 14:00N 29°46' W 095°07'0 0.0
2018-Apr-18 13:30N 29°46' W 095°07'0 0.4
2018-Apr-18 12:52N 29°46' W 095°06'1 2.9
2018-Apr-18 12:30N 29°45' W 095°06'3 5.5
2018-Apr-18 11:58N 29°45' W 095°10'3 5.5
2018-Apr-18 11:22N 29°44' W 095°13'0 0.3
2018-Apr-18 10:48N 29°44' W 095°13'0 1.5
2018-Apr-18 10:29N 29°43' W 095°13'2 4.8
2018-Apr-18 09:59N 29°45' W 095°11'3 5.6
2018-Apr-18 09:28N 29°44' W 095°07'3 5.6
2018-Apr-18 09:00N 29°46' W 095°05'1 1.7
2018-Apr-18 08:12N 29°47' W 095°04'0 0.0
2018-Apr-18 08:00N 29°47' W 095°04'3 2.5
2018-Apr-18 06:51N 29°45' W 095°06'0 0.6
2018-Apr-18 06:30N 29°45' W 095°06'1 0.9
2018-Apr-18 05:10N 29°46' W 095°05'1 5.1
2018-Apr-18 05:00N 29°46' W 095°05'1 1.3
2018-Apr-18 04:28N 29°47' W 095°04'0 0.0
2018-Apr-18 03:49N 29°47' W 095°04'0 0.0
2018-Apr-18 03:25N 29°47' W 095°04'2 4.5
2018-Apr-18 03:00N 29°45' W 095°05'3 5.7
2018-Apr-18 02:30N 29°44' W 095°08'3 5.6
2018-Apr-18 02:00N 29°45' W 095°12'2 1.2
2018-Apr-18 00:13N 29°44' W 095°14'2 5.3
2018-Apr-17 23:47N 29°45' W 095°11'1 4.5
2018-Apr-17 23:29N 29°45' W 095°10'3 5.4
2018-Apr-17 22:59N 29°44' W 095°07'2 4.7
2018-Apr-17 22:30N 29°46' W 095°05'1 1.6
2018-Apr-17 21:58N 29°47' W 095°05'0 0.2
2018-Apr-17 21:30N 29°47' W 095°04'0 0.0
2018-Apr-17 21:00N 29°47' W 095°04'0 0.0
2018-Apr-17 20:27N 29°47' W 095°04'0 0.0
2018-Apr-17 20:00N 29°47' W 095°04'0 0.0
2018-Apr-17 19:30N 29°47' W 095°04'0 0.0
2018-Apr-17 19:00N 29°47' W 095°04'0 0.0
2018-Apr-17 18:30N 29°47' W 095°04'0 0.0
2018-Apr-17 18:00N 29°47' W 095°04'0 0.0
2018-Apr-17 17:30N 29°47' W 095°04'0 0.0
2018-Apr-17 17:00N 29°47' W 095°04'0 0.0
2018-Apr-17 16:30N 29°47' W 095°04'0 0.6
2018-Apr-17 16:00N 29°47' W 095°04'0 0.5
2018-Apr-17 15:29N 29°47' W 095°04'0 0.0
2018-Apr-17 14:56N 29°47' W 095°04'0 0.2
2018-Apr-17 14:29N 29°47' W 095°04'0 0.2
2018-Apr-17 14:01N 29°47' W 095°04'0 0.0
2018-Apr-17 13:30N 29°47' W 095°04'0 0.0
2018-Apr-17 13:00N 29°47' W 095°04'0 0.0
2018-Apr-17 12:30N 29°47' W 095°04'0 0.0
2018-Apr-17 11:54N 29°47' W 095°04'0 0.0
2018-Apr-17 11:15N 29°47' W 095°04'0 0.0
2018-Apr-17 10:57N 29°47' W 095°04'0 0.0
2018-Apr-17 10:24N 29°47' W 095°04'0 0.0
2018-Apr-17 09:57N 29°47' W 095°04'0 0.0
2018-Apr-17 09:30N 29°47' W 095°04'0 0.0
2018-Apr-17 09:00N 29°47' W 095°04'0 0.0
2018-Apr-17 08:30N 29°47' W 095°04'0 0.0
2018-Apr-17 08:00N 29°47' W 095°04'0 0.0
2018-Apr-17 07:15N 29°47' W 095°04'0 0.0
2018-Apr-17 06:57N 29°47' W 095°04'0 0.0
2018-Apr-17 06:30N 29°47' W 095°04'0 0.0
2018-Apr-17 06:00N 29°47' W 095°04'0 0.0
2018-Apr-17 05:27N 29°47' W 095°04'0 0.0
2018-Apr-17 04:57N 29°47' W 095°04'0 0.0
2018-Apr-17 04:30N 29°47' W 095°04'0 0.0
2018-Apr-17 04:00N 29°47' W 095°04'0 0.0
2018-Apr-17 03:03N 29°47' W 095°04'0 0.0
2018-Apr-17 02:54N 29°47' W 095°04'0 0.0
2018-Apr-17 02:30N 29°47' W 095°04'0 0.0
2018-Apr-17 01:51N 29°47' W 095°04'0 0.0
2018-Apr-17 01:00N 29°47' W 095°04'0 0.0
2018-Apr-17 00:30N 29°47' W 095°04'0 0.0
2018-Apr-17 00:00N 29°47' W 095°04'0 0.8
2018-Apr-16 23:30N 29°47' W 095°05'0 0.6
2018-Apr-16 22:59N 29°47' W 095°04'0 0.1
2018-Apr-16 22:30N 29°47' W 095°04'0 0.1
2018-Apr-16 21:09N 29°47' W 095°04'0 0.1
2018-Apr-16 21:00N 29°47' W 095°04'0 0.2
2018-Apr-16 20:29N 29°47' W 095°04'0 0.1
2018-Apr-16 19:56N 29°47' W 095°04'0 0.0
2018-Apr-16 19:14N 29°47' W 095°04'0 0.0
2018-Apr-16 18:59N 29°47' W 095°04'0 0.0
2018-Apr-16 18:23N 29°47' W 095°04'0 0.1
2018-Apr-16 17:59N 29°47' W 095°04'1 1.3
2018-Apr-16 17:31N 29°46' W 095°05'1 0.5
2018-Apr-16 15:29N 29°46' W 095°06'1 0.4
2018-Apr-16 13:03N 29°45' W 095°06'0 5.5
2018-Apr-16 12:59N 29°45' W 095°06'1 0.5
2018-Apr-16 10:52N 29°46' W 095°06'1 2.6
2018-Apr-16 10:29N 29°46' W 095°05'1 2.9
2018-Apr-16 10:00N 29°47' W 095°04'0 0.0
2018-Apr-16 09:30N 29°47' W 095°04'1 0.9
2018-Apr-16 08:56N 29°46' W 095°05'2 4.5
2018-Apr-16 08:29N 29°45' W 095°04'2 5.0
2018-Apr-16 08:00N 29°43' W 095°01'1 2.3
2018-Apr-16 07:30N 29°42' W 095°02'1 2.4
2018-Apr-16 06:59N 29°43' W 095°03'0 0.3
2018-Apr-16 06:29N 29°43' W 095°03'0 0.0
2018-Apr-16 05:50N 29°43' W 095°03'0 0.0
2018-Apr-16 05:17N 29°43' W 095°03'0 0.0
2018-Apr-16 04:59N 29°43' W 095°03'0 0.0
2018-Apr-16 04:26N 29°43' W 095°03'0 0.0
2018-Apr-16 03:59N 29°43' W 095°03'0 0.0
2018-Apr-16 03:14N 29°43' W 095°03'0 0.0
2018-Apr-16 02:59N 29°43' W 095°03'0 0.0
2018-Apr-16 02:29N 29°43' W 095°03'0 0.0
2018-Apr-16 01:59N 29°43' W 095°03'0 0.0
2018-Apr-16 01:29N 29°43' W 095°03'0 0.0
2018-Apr-16 00:56N 29°43' W 095°03'0 0.0
2018-Apr-16 00:29N 29°43' W 095°03'0 0.0
2018-Apr-15 23:59N 29°43' W 095°03'0 0.0
2018-Apr-15 23:29N 29°43' W 095°03'0 0.0
2018-Apr-15 22:59N 29°43' W 095°03'0 0.0
2018-Apr-15 22:30N 29°43' W 095°03'0 0.0
2018-Apr-15 21:54N 29°43' W 095°03'0 0.0
2018-Apr-15 21:30N 29°43' W 095°03'0 0.0
2018-Apr-15 21:00N 29°43' W 095°03'0 0.0
2018-Apr-15 20:30N 29°43' W 095°03'0 0.0
2018-Apr-15 20:00N 29°43' W 095°03'0 0.0
2018-Apr-15 19:30N 29°43' W 095°03'0 0.0
2018-Apr-15 19:00N 29°43' W 095°03'0 0.0
2018-Apr-15 18:30N 29°43' W 095°03'0 0.0
2018-Apr-15 17:57N 29°43' W 095°03'0 0.0
2018-Apr-15 17:30N 29°43' W 095°03'0 0.0
2018-Apr-15 17:00N 29°43' W 095°03'0 0.0
2018-Apr-15 16:30N 29°43' W 095°03'0 0.0
2018-Apr-15 16:00N 29°43' W 095°03'0 0.0
2018-Apr-15 15:30N 29°43' W 095°03'0 0.0
2018-Apr-15 15:00N 29°43' W 095°03'0 0.0
2018-Apr-15 14:30N 29°43' W 095°03'0 0.0
2018-Apr-15 14:00N 29°43' W 095°03'0 0.0
2018-Apr-15 13:30N 29°43' W 095°03'0 0.0
2018-Apr-15 13:00N 29°43' W 095°03'0 0.0
2018-Apr-15 12:30N 29°43' W 095°03'0 0.1
2018-Apr-15 11:50N 29°42' W 095°03'1 2.0
2018-Apr-15 11:30N 29°42' W 095°02'1 2.2
2018-Apr-15 11:00N 29°43' W 095°01'2 4.7
2018-Apr-15 10:30N 29°44' W 095°03'2 4.6
2018-Apr-15 10:00N 29°46' W 095°05'1 1.6
2018-Apr-15 09:27N 29°47' W 095°04'0 0.1
2018-Apr-15 08:19N 29°47' W 095°04'0 0.1
2018-Apr-15 04:22N 29°47' W 095°04'2 4.4
2018-Apr-15 04:00N 29°45' W 095°04'2 3.7
2018-Apr-15 03:30N 29°44' W 095°03'0 0.1
2018-Apr-15 03:00N 29°44' W 095°03'0 0.2
2018-Apr-15 02:28N 29°44' W 095°03'2 4.7
2018-Apr-15 01:59N 29°46' W 095°05'2 0.3
2018-Apr-14 21:17N 29°47' W 095°04'1 4.8
2018-Apr-14 21:00N 29°46' W 095°05'  

Dump ship's entire track history